createdAt,value
2023-05-12T00:02:18.304Z,10.80
2023-05-12T00:04:44.988Z,10.80
2023-05-12T00:07:12.330Z,10.80
2023-05-12T00:09:39.097Z,10.80
2023-05-12T00:12:06.000Z,10.70
2023-05-12T00:14:32.633Z,10.70
2023-05-12T00:16:59.237Z,10.70
2023-05-12T00:19:26.199Z,10.70
2023-05-12T00:21:52.878Z,10.70
2023-05-12T00:24:19.483Z,10.70
2023-05-12T00:26:46.126Z,10.70
2023-05-12T00:29:12.741Z,10.70
2023-05-12T00:31:39.368Z,10.70
2023-05-12T00:34:06.175Z,10.70
2023-05-12T00:36:32.908Z,10.70
2023-05-12T00:38:59.602Z,10.70
2023-05-12T00:41:26.247Z,10.70
2023-05-12T00:43:52.967Z,10.70
2023-05-12T00:46:20.146Z,10.70
2023-05-12T00:48:47.159Z,10.70
2023-05-12T00:51:15.605Z,10.70
2023-05-12T00:53:49.956Z,10.70
2023-05-12T00:56:20.449Z,10.70
2023-05-12T00:58:47.404Z,10.70
2023-05-12T01:01:14.297Z,10.70
2023-05-12T01:03:41.116Z,10.70
2023-05-12T01:06:22.145Z,10.70
2023-05-12T01:08:49.110Z,10.70
2023-05-12T01:11:15.752Z,10.60
2023-05-12T01:13:42.567Z,10.60
2023-05-12T01:16:11.799Z,10.60
2023-05-12T01:18:40.225Z,10.70
2023-05-12T01:21:07.132Z,10.60
2023-05-12T01:23:42.371Z,10.60
2023-05-12T01:26:09.904Z,10.60
2023-05-12T01:28:37.662Z,10.60
2023-05-12T01:31:06.271Z,10.60
2023-05-12T01:33:34.117Z,10.60
2023-05-12T01:36:01.039Z,10.60
2023-05-12T01:38:27.853Z,10.70
2023-05-12T01:40:54.494Z,10.70
2023-05-12T01:43:22.317Z,10.70
2023-05-12T01:45:49.145Z,10.70
2023-05-12T01:48:15.893Z,10.70
2023-05-12T01:50:42.606Z,10.70
2023-05-12T01:53:12.430Z,10.60
2023-05-12T01:55:39.654Z,10.60
2023-05-12T01:58:06.289Z,10.70
2023-05-12T02:00:32.956Z,10.60
2023-05-12T02:02:59.798Z,10.60
2023-05-12T02:05:26.579Z,10.60
2023-05-12T02:07:53.330Z,10.60
2023-05-12T02:10:20.201Z,10.60
2023-05-12T02:12:46.970Z,10.60
2023-05-12T02:15:13.607Z,10.60
2023-05-12T02:17:40.305Z,10.60
2023-05-12T02:20:07.755Z,10.60
2023-05-12T02:22:34.402Z,10.60
2023-05-12T02:25:01.242Z,10.60
2023-05-12T02:27:27.868Z,10.60
2023-05-12T02:29:54.521Z,10.60
2023-05-12T02:32:21.631Z,10.60
2023-05-12T02:34:48.338Z,10.50
2023-05-12T02:37:15.141Z,10.50
2023-05-12T02:39:41.874Z,10.50
2023-05-12T02:42:08.516Z,10.60
2023-05-12T02:44:35.177Z,10.60
2023-05-12T02:47:01.804Z,10.60
2023-05-12T02:49:28.522Z,10.60
2023-05-12T02:51:55.300Z,10.60
2023-05-12T02:54:22.023Z,10.60
2023-05-12T02:56:48.709Z,10.60
2023-05-12T02:59:15.507Z,10.60
2023-05-12T03:01:42.258Z,10.60
2023-05-12T03:04:08.933Z,10.60
2023-05-12T03:06:35.588Z,10.60
2023-05-12T03:09:02.424Z,10.60
2023-05-12T03:11:29.086Z,10.50
2023-05-12T03:13:55.712Z,10.50
2023-05-12T03:16:22.508Z,10.50
2023-05-12T03:18:49.386Z,10.50
2023-05-12T03:21:16.163Z,10.50
2023-05-12T03:23:42.956Z,10.60
2023-05-12T03:26:09.602Z,10.60
2023-05-12T03:28:36.256Z,10.60
2023-05-12T03:31:02.946Z,10.60
2023-05-12T03:33:30.290Z,10.60
2023-05-12T03:35:56.940Z,10.60
2023-05-12T03:38:23.592Z,10.60
2023-05-12T03:40:52.957Z,10.60
2023-05-12T03:43:19.699Z,10.60
2023-05-12T03:45:46.542Z,10.60
2023-05-12T03:48:13.245Z,10.60
2023-05-12T03:50:39.972Z,10.60
2023-05-12T03:53:06.579Z,10.60
2023-05-12T03:55:33.564Z,10.60
2023-05-12T03:58:00.211Z,10.60
2023-05-12T04:00:26.923Z,10.60
2023-05-12T04:02:53.809Z,10.60
2023-05-12T04:05:20.741Z,10.60
2023-05-12T04:07:47.465Z,10.60
2023-05-12T04:10:14.170Z,10.60
2023-05-12T04:12:40.832Z,10.60
2023-05-12T04:15:08.133Z,10.60
2023-05-12T04:17:35.071Z,10.60
2023-05-12T04:20:01.998Z,10.70
2023-05-12T04:22:28.655Z,10.60
2023-05-12T04:24:55.360Z,10.60
2023-05-12T04:27:21.980Z,10.70
2023-05-12T04:29:48.628Z,10.70
2023-05-12T04:32:15.319Z,10.80
2023-05-12T04:34:42.029Z,10.70
2023-05-12T04:37:08.714Z,10.80
2023-05-12T04:39:35.366Z,10.80
2023-05-12T04:42:02.292Z,10.80
2023-05-12T04:44:28.978Z,10.80
2023-05-12T04:46:56.548Z,10.80
2023-05-12T04:49:23.411Z,10.80
2023-05-12T04:51:50.100Z,10.80
2023-05-12T04:54:18.294Z,10.80
2023-05-12T04:56:52.177Z,10.90
2023-05-12T04:59:20.226Z,10.90
2023-05-12T05:02:01.601Z,10.90
2023-05-12T05:04:34.485Z,11.00
2023-05-12T05:07:05.065Z,11.00
2023-05-12T05:09:43.562Z,11.00
2023-05-12T05:12:17.181Z,11.10
2023-05-12T05:14:52.952Z,11.10
2023-05-12T05:17:23.285Z,11.10
2023-05-12T05:19:58.301Z,11.10
2023-05-12T05:22:29.761Z,11.20
2023-05-12T05:24:57.922Z,11.20
2023-05-12T05:27:28.137Z,11.30
2023-05-12T05:29:56.105Z,11.30
2023-05-12T05:32:24.307Z,11.50
2023-05-12T05:34:52.296Z,11.50
2023-05-12T05:37:20.421Z,11.70
2023-05-12T05:39:50.310Z,11.80
2023-05-12T05:42:20.658Z,11.90
2023-05-12T05:44:48.660Z,11.90
2023-05-12T05:47:19.623Z,11.90
2023-05-12T05:49:50.094Z,12.00
2023-05-12T05:52:21.421Z,12.10
2023-05-12T05:54:49.393Z,12.20
2023-05-12T05:57:31.510Z,12.20
2023-05-12T06:00:08.693Z,12.20
2023-05-12T06:02:40.392Z,12.20
2023-05-12T06:05:10.758Z,12.30
2023-05-12T06:07:38.790Z,12.30
2023-05-12T06:10:33.101Z,12.40
2023-05-12T06:13:04.225Z,12.40
2023-05-12T06:15:32.285Z,12.40
2023-05-12T06:18:06.105Z,12.40
2023-05-12T06:20:34.013Z,12.50
2023-05-12T06:23:02.699Z,12.60
2023-05-12T06:25:30.828Z,12.60
2023-05-12T06:27:58.895Z,12.70
2023-05-12T06:30:27.374Z,12.70
2023-05-12T06:33:01.372Z,12.80
2023-05-12T06:35:31.613Z,12.80
2023-05-12T06:37:59.275Z,12.90
2023-05-12T06:40:33.798Z,12.90
2023-05-12T06:43:02.019Z,12.90
2023-05-12T06:45:29.936Z,12.90
2023-05-12T06:47:58.468Z,12.90
2023-05-12T06:50:28.845Z,12.90
2023-05-12T06:53:05.422Z,13.00
2023-05-12T06:55:38.513Z,13.00
2023-05-12T06:58:12.413Z,13.00
2023-05-12T07:00:40.536Z,13.10
2023-05-12T07:03:14.787Z,13.20
2023-05-12T07:05:54.628Z,13.10
2023-05-12T07:08:24.883Z,13.20
2023-05-12T07:10:56.419Z,13.20
2023-05-12T07:13:24.285Z,13.20
2023-05-12T07:15:54.542Z,13.30
2023-05-12T07:18:22.285Z,13.40
2023-05-12T07:20:51.598Z,13.40
2023-05-12T07:23:23.327Z,13.50
2023-05-12T07:26:00.971Z,13.60
2023-05-12T07:28:35.476Z,13.70
2023-05-12T07:31:07.220Z,13.80
2023-05-12T07:33:36.397Z,13.80
2023-05-12T07:36:15.503Z,13.90
2023-05-12T07:38:43.067Z,14.00
2023-05-12T07:41:10.997Z,14.00
2023-05-12T07:43:58.996Z,14.20
2023-05-12T07:46:29.653Z,14.40
2023-05-12T07:49:07.015Z,14.50
2023-05-12T07:51:35.128Z,14.70
2023-05-12T07:54:08.228Z,14.80
2023-05-12T07:56:38.707Z,15.00
2023-05-12T07:59:07.228Z,15.10
2023-05-12T08:01:43.166Z,15.30
2023-05-12T08:04:11.460Z,15.60
2023-05-12T08:06:41.801Z,15.90
2023-05-12T08:09:14.647Z,16.00
2023-05-12T08:11:47.119Z,16.10
2023-05-12T08:14:18.214Z,16.10
2023-05-12T08:16:46.736Z,16.10
2023-05-12T08:19:14.440Z,16.20
2023-05-12T08:21:49.207Z,16.10
2023-05-12T08:24:16.364Z,15.90
2023-05-12T08:26:43.568Z,15.80
2023-05-12T08:29:13.428Z,15.60
2023-05-12T08:31:43.120Z,15.60
2023-05-12T08:34:12.844Z,15.60
2023-05-12T08:36:40.795Z,15.50
2023-05-12T08:39:11.727Z,15.40
2023-05-12T08:42:17.797Z,15.30
2023-05-12T08:44:48.320Z,15.10
2023-05-12T08:47:24.601Z,15.30
2023-05-12T08:50:01.978Z,15.40
2023-05-12T08:52:38.954Z,15.50
2023-05-12T08:55:07.263Z,15.50
2023-05-12T08:57:35.816Z,15.60
2023-05-12T09:00:06.594Z,15.60
2023-05-12T09:02:48.365Z,15.20
2023-05-12T09:05:20.173Z,15.30
2023-05-12T09:08:05.033Z,15.30
2023-05-12T09:10:35.471Z,15.30
2023-05-12T09:13:20.884Z,15.40
2023-05-12T09:15:58.695Z,15.50
2023-05-12T09:18:26.152Z,15.70
2023-05-12T09:20:53.397Z,15.70
2023-05-12T09:23:28.532Z,15.70
2023-05-12T09:26:06.027Z,15.80
2023-05-12T09:28:50.582Z,15.80
2023-05-12T09:31:28.305Z,16.00
2023-05-12T09:33:58.277Z,16.40
2023-05-12T09:36:26.471Z,16.70
2023-05-12T09:39:08.268Z,17.00
2023-05-12T09:41:42.471Z,17.00
2023-05-12T09:44:17.614Z,17.00
2023-05-12T09:46:48.565Z,17.20
2023-05-12T09:49:33.802Z,17.40
2023-05-12T09:52:08.437Z,17.80
2023-05-12T09:54:43.181Z,18.10
2023-05-12T09:57:18.833Z,18.80
2023-05-12T09:59:49.997Z,19.10
2023-05-12T10:02:20.983Z,19.20
2023-05-12T10:04:57.204Z,18.80
2023-05-12T10:07:38.672Z,18.40
2023-05-12T10:10:12.700Z,17.70
2023-05-12T10:12:41.857Z,17.40
2023-05-12T10:15:19.766Z,17.20
2023-05-12T10:17:53.706Z,17.00
2023-05-12T10:20:30.317Z,16.90
2023-05-12T10:25:53.736Z,17.60
2023-05-12T10:28:20.988Z,18.20
2023-05-12T10:30:59.294Z,18.90
2023-05-12T10:33:30.098Z,19.20
2023-05-12T10:36:06.081Z,19.70
2023-05-12T10:38:40.197Z,20.20
2023-05-12T10:41:07.767Z,20.60
2023-05-12T10:43:46.874Z,20.20
2023-05-12T10:46:21.008Z,19.80
2023-05-12T10:49:00.860Z,19.40
2023-05-12T10:51:48.516Z,19.50
2023-05-12T10:54:25.475Z,19.80
2023-05-12T10:56:53.637Z,20.20
2023-05-12T10:59:27.392Z,20.90
2023-05-12T11:02:07.200Z,21.20
2023-05-12T11:04:55.505Z,21.40
2023-05-12T11:07:27.644Z,21.60
2023-05-12T11:10:00.283Z,21.10
2023-05-12T11:12:32.578Z,21.00
2023-05-12T11:15:01.532Z,20.20
2023-05-12T11:17:28.932Z,20.00
2023-05-12T11:19:56.389Z,20.20
2023-05-12T11:22:23.932Z,20.00
2023-05-12T11:24:52.575Z,20.30
2023-05-12T11:27:24.573Z,20.90
2023-05-12T11:30:02.917Z,21.20
2023-05-12T11:32:30.181Z,21.30
2023-05-12T11:35:17.803Z,20.90
2023-05-12T11:37:45.665Z,20.30
2023-05-12T11:40:23.039Z,20.00
2023-05-12T11:42:54.785Z,19.40
2023-05-12T11:45:29.836Z,19.50
2023-05-12T11:48:14.037Z,19.50
2023-05-12T11:50:43.563Z,19.10
2023-05-12T11:53:13.621Z,18.80
2023-05-12T11:55:48.409Z,18.40
2023-05-12T11:58:21.375Z,17.90
2023-05-12T12:00:49.204Z,17.90
2023-05-12T12:03:16.760Z,18.10
2023-05-12T12:05:45.628Z,18.10
2023-05-12T12:08:14.518Z,18.40
2023-05-12T12:10:47.377Z,18.80
2023-05-12T12:13:23.837Z,19.10
2023-05-12T12:15:51.538Z,19.00
2023-05-12T12:18:19.136Z,18.90
2023-05-12T12:20:47.411Z,18.60
2023-05-12T12:23:14.232Z,18.20
2023-05-12T12:25:40.906Z,17.90
2023-05-12T12:28:08.227Z,17.60
2023-05-12T12:30:34.945Z,17.20
2023-05-12T12:33:01.676Z,17.00
2023-05-12T12:35:28.434Z,17.00
2023-05-12T12:37:55.498Z,17.00
2023-05-12T12:40:22.262Z,17.00
2023-05-12T12:42:48.962Z,17.00
2023-05-12T12:45:16.470Z,17.00
2023-05-12T12:47:44.152Z,17.00
2023-05-12T12:50:11.210Z,16.90
2023-05-12T12:52:38.639Z,16.80
2023-05-12T12:55:09.905Z,16.70
2023-05-12T12:57:36.870Z,16.50
2023-05-12T13:00:05.657Z,16.40
2023-05-12T13:02:33.184Z,16.40
2023-05-12T13:05:04.098Z,16.40
2023-05-12T13:07:30.970Z,16.40
2023-05-12T13:09:57.816Z,16.50
2023-05-12T13:12:24.774Z,16.50
2023-05-12T13:14:51.523Z,16.60
2023-05-12T13:17:19.025Z,16.50
2023-05-12T13:19:45.921Z,16.40
2023-05-12T13:22:12.635Z,16.50
2023-05-12T13:24:39.454Z,16.50
2023-05-12T13:27:08.389Z,16.50
2023-05-12T13:29:36.132Z,16.50
2023-05-12T13:32:03.727Z,16.50
2023-05-12T13:34:30.476Z,16.60
2023-05-12T13:36:57.187Z,16.60
2023-05-12T13:39:23.873Z,16.70
2023-05-12T13:41:50.668Z,16.70
2023-05-12T13:44:17.397Z,16.60
2023-05-12T13:46:44.317Z,16.50
2023-05-12T13:49:11.127Z,16.40
2023-05-12T13:51:38.301Z,16.30
2023-05-12T13:54:04.979Z,16.20
2023-05-12T13:56:31.848Z,16.10
2023-05-12T13:58:58.597Z,16.30
2023-05-12T14:01:25.811Z,16.50
2023-05-12T14:03:52.549Z,16.70
2023-05-12T14:06:19.214Z,16.90
2023-05-12T14:08:46.025Z,16.90
2023-05-12T14:11:12.780Z,16.90
2023-05-12T14:13:39.506Z,16.90
2023-05-12T14:16:06.611Z,17.00
2023-05-12T14:18:33.341Z,16.90
2023-05-12T14:21:00.404Z,17.10
2023-05-12T14:23:27.206Z,17.20
2023-05-12T14:25:54.325Z,17.30
2023-05-12T14:28:22.927Z,17.60
2023-05-12T14:30:50.566Z,17.80
2023-05-12T14:33:17.371Z,17.90
2023-05-12T14:35:52.853Z,18.10
2023-05-12T14:38:26.753Z,18.20
2023-05-12T14:40:53.520Z,18.10
2023-05-12T14:43:20.217Z,18.20
2023-05-12T14:45:54.432Z,18.20
2023-05-12T14:48:22.470Z,18.00
2023-05-12T14:50:53.117Z,18.00
2023-05-12T14:53:20.303Z,18.00
2023-05-12T14:55:47.499Z,17.80
2023-05-12T14:58:14.484Z,17.70
2023-05-12T15:00:41.421Z,17.60
2023-05-12T15:03:08.274Z,17.70
2023-05-12T15:05:56.746Z,17.50
2023-05-12T15:08:23.396Z,17.40
2023-05-12T15:10:50.427Z,17.40
2023-05-12T15:13:20.011Z,17.40
2023-05-12T15:15:46.738Z,17.20
2023-05-12T15:18:13.637Z,17.20
2023-05-12T15:20:40.647Z,17.20
2023-05-12T15:23:07.331Z,17.20
2023-05-12T15:25:34.028Z,17.10
2023-05-12T15:28:00.749Z,17.00
2023-05-12T15:30:27.417Z,17.00
2023-05-12T15:32:54.215Z,17.00
2023-05-12T15:35:21.117Z,17.10
2023-05-12T15:37:48.099Z,17.10
2023-05-12T15:40:14.917Z,17.10
2023-05-12T15:42:41.662Z,17.00
2023-05-12T15:45:09.688Z,17.00
2023-05-12T15:47:36.589Z,17.10
2023-05-12T15:50:04.295Z,17.10
2023-05-12T15:52:31.247Z,17.10
2023-05-12T15:54:58.003Z,17.10
2023-05-12T15:57:24.719Z,17.20
2023-05-12T15:59:57.993Z,17.20
2023-05-12T16:02:24.824Z,17.10
2023-05-12T16:04:51.608Z,17.10
2023-05-12T16:07:18.437Z,17.00
2023-05-12T16:09:45.177Z,17.00
2023-05-12T16:12:12.098Z,17.00
2023-05-12T16:14:38.849Z,17.00
2023-05-12T16:17:05.859Z,17.00
2023-05-12T16:19:32.533Z,16.90
2023-05-12T16:22:00.387Z,16.90
2023-05-12T16:24:28.712Z,16.90
2023-05-12T16:26:57.061Z,16.90
2023-05-12T16:29:23.741Z,16.90
2023-05-12T16:31:50.673Z,16.90
2023-05-12T16:34:18.210Z,16.90
2023-05-12T16:36:44.985Z,16.90
2023-05-12T16:39:11.715Z,17.00
2023-05-12T16:41:38.683Z,17.00
2023-05-12T16:44:05.741Z,16.90
2023-05-12T16:46:32.866Z,16.90
2023-05-12T16:48:59.873Z,16.80
2023-05-12T16:51:30.579Z,16.80
2023-05-12T16:53:57.832Z,16.80
2023-05-12T16:56:25.956Z,16.70
2023-05-12T16:58:52.783Z,16.60
2023-05-12T17:01:19.613Z,16.60
2023-05-12T17:03:46.505Z,16.60
2023-05-12T17:06:13.500Z,16.60
2023-05-12T17:08:40.854Z,16.60
2023-05-12T17:11:08.203Z,16.60
2023-05-12T17:13:38.384Z,16.60
2023-05-12T17:16:05.519Z,16.70
2023-05-12T17:18:32.333Z,16.60
2023-05-12T17:20:59.079Z,16.60
2023-05-12T17:23:26.868Z,16.50
2023-05-12T17:25:53.862Z,16.50
2023-05-12T17:28:21.232Z,16.40
2023-05-12T17:30:48.459Z,16.40
2023-05-12T17:33:15.773Z,16.30
2023-05-12T17:35:43.816Z,16.30
2023-05-12T17:38:12.457Z,16.20
2023-05-12T17:40:39.217Z,16.20
2023-05-12T17:43:06.159Z,16.20
2023-05-12T17:45:33.442Z,16.00
2023-05-12T17:48:00.238Z,16.00
2023-05-12T17:50:27.037Z,16.00
2023-05-12T17:52:54.947Z,15.90
2023-05-12T17:55:22.106Z,15.90
2023-05-12T17:57:49.660Z,15.80
2023-05-12T18:00:16.890Z,15.70
2023-05-12T18:02:43.849Z,15.60
2023-05-12T18:05:11.010Z,15.50
2023-05-12T18:07:37.853Z,15.30
2023-05-12T18:10:08.009Z,15.20
2023-05-12T18:12:34.958Z,15.10
2023-05-12T18:15:01.972Z,15.00
2023-05-12T18:17:29.000Z,14.90
2023-05-12T18:19:55.871Z,14.80
2023-05-12T18:22:22.606Z,14.50
2023-05-12T18:24:50.727Z,14.40
2023-05-12T18:27:17.500Z,14.30
2023-05-12T18:29:44.192Z,14.10
2023-05-12T18:32:10.856Z,13.90
2023-05-12T18:34:37.655Z,13.80
2023-05-12T18:37:04.667Z,13.70
2023-05-12T18:39:31.411Z,13.50
2023-05-12T18:41:58.545Z,13.40
2023-05-12T18:44:25.377Z,13.20
2023-05-12T18:46:52.298Z,13.10
2023-05-12T18:49:19.155Z,12.90
2023-05-12T18:51:45.881Z,12.80
2023-05-12T18:54:12.689Z,12.70
2023-05-12T18:56:39.408Z,12.50
2023-05-12T18:59:06.167Z,12.40
2023-05-12T19:01:33.633Z,12.30
2023-05-12T19:04:00.392Z,12.20
2023-05-12T19:06:27.081Z,12.00
2023-05-12T19:08:53.956Z,11.90
2023-05-12T19:11:20.965Z,11.80
2023-05-12T19:13:50.632Z,11.70
2023-05-12T19:16:18.241Z,11.60
2023-05-12T19:18:45.913Z,11.50
2023-05-12T19:21:13.152Z,11.40
2023-05-12T19:23:39.846Z,11.30
2023-05-12T19:26:07.295Z,11.20
2023-05-12T19:28:33.984Z,11.10
2023-05-12T19:31:00.829Z,10.90
2023-05-12T19:33:29.308Z,10.80
2023-05-12T19:35:56.552Z,10.80
2023-05-12T19:38:23.773Z,10.60
2023-05-12T19:40:50.555Z,10.50
2023-05-12T19:43:17.260Z,10.40
2023-05-12T19:45:44.040Z,10.30
2023-05-12T19:48:10.814Z,10.30
2023-05-12T19:50:37.588Z,10.20
2023-05-12T19:53:04.284Z,10.10
2023-05-12T19:55:31.100Z,10.10
2023-05-12T19:57:57.810Z,10.00
2023-05-12T20:00:26.731Z,10.00
2023-05-12T20:02:53.553Z,10.00
2023-05-12T20:05:20.740Z,9.90
2023-05-12T20:07:48.609Z,9.90
2023-05-12T20:10:15.379Z,9.80
2023-05-12T20:12:42.178Z,9.80
2023-05-12T20:15:09.344Z,9.70
2023-05-12T20:17:36.162Z,9.70
2023-05-12T20:20:04.195Z,9.60
2023-05-12T20:22:31.853Z,9.50
2023-05-12T20:25:04.077Z,9.50
2023-05-12T20:27:34.066Z,9.40
2023-05-12T20:30:00.938Z,9.40
2023-05-12T20:32:27.710Z,9.30
2023-05-12T20:34:54.422Z,9.20
2023-05-12T20:37:21.202Z,9.10
2023-05-12T20:39:47.865Z,9.10
2023-05-12T20:42:14.714Z,9.10
2023-05-12T20:44:41.551Z,9.00
2023-05-12T20:47:09.080Z,9.00
2023-05-12T20:49:35.832Z,8.90
2023-05-12T20:52:02.670Z,9.00
2023-05-12T20:54:29.469Z,8.90
2023-05-12T20:56:56.220Z,8.90
2023-05-12T20:59:24.657Z,8.90
2023-05-12T21:01:51.443Z,8.90
2023-05-12T21:04:18.427Z,8.90
2023-05-12T21:06:45.233Z,8.90
2023-05-12T21:09:12.194Z,8.90
2023-05-12T21:11:39.007Z,8.90
2023-05-12T21:14:05.744Z,8.80
2023-05-12T21:16:32.527Z,8.80
2023-05-12T21:18:59.326Z,8.80
2023-05-12T21:21:26.249Z,8.80
2023-05-12T21:23:53.008Z,8.80
2023-05-12T21:26:19.719Z,8.90
2023-05-12T21:28:46.494Z,8.90
2023-05-12T21:31:13.202Z,8.90
2023-05-12T21:33:39.897Z,8.90
2023-05-12T21:36:06.943Z,8.90
2023-05-12T21:38:33.750Z,8.90
2023-05-12T21:41:01.228Z,9.00
2023-05-12T21:43:27.945Z,9.00
2023-05-12T21:45:54.962Z,9.00
2023-05-12T21:48:21.698Z,9.00
2023-05-12T21:50:58.323Z,8.90
2023-05-12T21:53:25.106Z,8.80
2023-05-12T21:55:51.825Z,8.80
2023-05-12T21:58:18.594Z,8.80
2023-05-12T22:00:45.369Z,8.80
2023-05-12T22:03:12.371Z,8.80
2023-05-12T22:05:39.263Z,8.80
2023-05-12T22:08:06.331Z,8.80
2023-05-12T22:10:32.996Z,8.80
2023-05-12T22:12:59.678Z,8.70
2023-05-12T22:15:26.328Z,8.60
2023-05-12T22:17:53.262Z,8.60
2023-05-12T22:20:20.363Z,8.50
2023-05-12T22:22:47.240Z,8.40
2023-05-12T22:25:13.899Z,8.40
2023-05-12T22:27:41.084Z,8.30
2023-05-12T22:30:10.085Z,8.30
2023-05-12T22:32:37.206Z,8.20
2023-05-12T22:35:04.026Z,8.20
2023-05-12T22:37:30.785Z,8.10
2023-05-12T22:39:57.515Z,8.20
2023-05-12T22:42:24.292Z,8.10
2023-05-12T22:44:51.117Z,8.10
2023-05-12T22:47:17.928Z,8.10
2023-05-12T22:49:44.626Z,8.00
2023-05-12T22:52:11.420Z,8.00
2023-05-12T22:54:38.096Z,8.00
2023-05-12T22:57:04.831Z,8.00
2023-05-12T22:59:31.503Z,8.00
2023-05-12T23:01:58.248Z,8.00
2023-05-12T23:04:25.153Z,8.00
2023-05-12T23:06:52.154Z,8.00
2023-05-12T23:09:18.876Z,8.00
2023-05-12T23:11:45.746Z,8.00
2023-05-12T23:14:12.727Z,8.00
2023-05-12T23:16:41.003Z,7.90
2023-05-12T23:19:07.926Z,7.90
2023-05-12T23:21:34.752Z,7.90
2023-05-12T23:24:01.433Z,7.90
2023-05-12T23:26:28.193Z,7.90
2023-05-12T23:28:54.970Z,7.90
2023-05-12T23:31:21.652Z,7.90
2023-05-12T23:33:48.446Z,7.90
2023-05-12T23:36:15.211Z,7.90
2023-05-12T23:38:42.001Z,7.90
2023-05-12T23:41:08.679Z,7.90
2023-05-12T23:43:35.460Z,7.80
2023-05-12T23:46:02.297Z,7.80
2023-05-12T23:48:29.882Z,7.80
2023-05-12T23:50:56.563Z,7.70
2023-05-12T23:53:23.230Z,7.70
2023-05-12T23:55:50.261Z,7.60
2023-05-12T23:58:16.978Z,7.60
